Time;durP1;ratioP1;P1;durP2;ratioP2;P2;SDS_P1;SDS_P2;PMS_P1;PMS_P2;Temp;Humidity;BMP_temperature;BMP_pressure;BME280_temperature;BME280_humidity;BME280_pressure;Samples;Min_cycle;Max_cycle;Signal;HPM_P1;HPM_P2
2023/10/05 00:01:27;;;;;;;17.40;9.23;;;;;;;;;;5074989;28;20032;-71
2023/10/05 00:03:50;;;;;;;16.52;9.00;;;;;;;;;;5072987;28;20040;-70
2023/10/05 00:06:17;;;;;;;15.60;8.95;;;;;;;;;;5090821;28;20047;-70
2023/10/05 00:08:48;;;;;;;19.48;9.50;;;;;;;;;;5090762;28;20035;-71
2023/10/05 00:11:23;;;;;;;16.58;8.88;;;;;;;;;;5090575;28;20065;-70
2023/10/05 00:13:53;;;;;;;18.13;9.45;;;;;;;;;;5090082;28;20040;-70
2023/10/05 00:16:22;;;;;;;14.20;8.80;;;;;;;;;;5090369;28;20055;-70
2023/10/05 00:18:49;;;;;;;18.42;9.10;;;;;;;;;;5089026;28;20054;-70
2023/10/05 00:21:19;;;;;;;16.70;9.23;;;;;;;;;;5090074;28;20063;-70
2023/10/05 00:23:50;;;;;;;14.55;9.15;;;;;;;;;;5090667;28;20028;-70
2023/10/05 00:26:18;;;;;;;14.35;8.52;;;;;;;;;;5089442;28;20028;-71
2023/10/05 00:29:04;;;;;;;14.02;8.75;;;;;;;;;;5087868;28;20422;-71
2023/10/05 00:31:30;;;;;;;13.07;8.57;;;;;;;;;;5089018;28;20042;-71
2023/10/05 00:33:57;;;;;;;12.80;8.32;;;;;;;;;;5086383;28;20497;-70
2023/10/05 00:36:33;;;;;;;14.88;8.82;;;;;;;;;;5089753;28;20528;-70
2023/10/05 00:39:01;;;;;;;16.17;9.10;;;;;;;;;;5087290;28;20035;-70
2023/10/05 00:41:30;;;;;;;15.27;9.05;;;;;;;;;;5089875;28;20532;-70
2023/10/05 00:43:55;;;;;;;16.27;9.27;;;;;;;;;;5088350;28;20067;-71
2023/10/05 00:46:22;;;;;;;20.38;9.40;;;;;;;;;;5088346;28;20067;-70
2023/10/05 00:49:00;;;;;;;19.02;9.50;;;;;;;;;;5086777;28;20032;-70
2023/10/05 00:51:30;;;;;;;16.90;8.18;;;;;;;;;;5084269;28;20095;-71
2023/10/05 00:53:59;;;;;;;17.75;9.63;;;;;;;;;;5089211;28;20081;-70
2023/10/05 00:56:33;;;;;;;13.30;9.00;;;;;;;;;;5089590;28;20039;-71
2023/10/05 00:59:05;;;;;;;18.52;10.32;;;;;;;;;;5089303;28;20449;-70
2023/10/05 01:01:50;;;;;;;17.90;10.32;;;;;;;;;;5088615;28;20271;-70
2023/10/05 01:04:34;;;;;;;15.88;9.45;;;;;;;;;;5087931;28;20062;-70
2023/10/05 01:07:26;;;;;;;17.42;9.60;;;;;;;;;;5090137;28;20456;-70
2023/10/05 01:12:38;;;;;;;18.77;9.93;;;;;;;;;;5089588;28;20371;-70
2023/10/05 01:15:10;;;;;;;16.67;9.80;;;;;;;;;;5089397;28;20035;-70
2023/10/05 01:17:36;;;;;;;15.43;9.55;;;;;;;;;;5088701;28;20036;-70
2023/10/05 01:20:22;;;;;;;21.15;11.15;;;;;;;;;;5088501;28;20031;-71
2023/10/05 01:22:57;;;;;;;18.10;11.07;;;;;;;;;;5088159;28;20047;-71
2023/10/05 01:25:25;;;;;;;16.63;10.52;;;;;;;;;;5087802;28;20270;-70
2023/10/05 01:27:52;;;;;;;18.85;10.88;;;;;;;;;;5105253;28;20032;-71
2023/10/05 01:30:18;;;;;;;16.85;9.93;;;;;;;;;;5089301;28;20032;-70
2023/10/05 01:32:46;;;;;;;19.75;11.00;;;;;;;;;;5088369;28;20440;-70
2023/10/05 01:35:14;;;;;;;18.40;11.40;;;;;;;;;;5085858;28;20035;-70
2023/10/05 01:37:44;;;;;;;16.92;10.95;;;;;;;;;;5082374;28;20036;-71
2023/10/05 01:40:24;;;;;;;16.23;10.50;;;;;;;;;;5088857;28;20509;-71
2023/10/05 01:42:52;;;;;;;18.40;10.35;;;;;;;;;;5088565;28;20127;-70
2023/10/05 01:45:29;;;;;;;17.02;10.40;;;;;;;;;;5088749;28;20039;-70
2023/10/05 01:47:55;;;;;;;21.13;10.95;;;;;;;;;;5087666;28;20061;-70
2023/10/05 01:50:24;;;;;;;20.58;11.00;;;;;;;;;;5087574;28;20430;-70
2023/10/05 01:53:02;;;;;;;19.17;11.98;;;;;;;;;;5089094;28;20144;-70
2023/10/05 01:55:30;;;;;;;19.17;10.65;;;;;;;;;;5088650;28;20129;-70
2023/10/05 01:57:58;;;;;;;16.88;10.25;;;;;;;;;;5104677;28;20375;-70
2023/10/05 02:00:25;;;;;;;17.17;10.82;;;;;;;;;;5089046;28;20523;-71
2023/10/05 02:02:52;;;;;;;20.55;11.35;;;;;;;;;;5088868;28;20053;-70
2023/10/05 02:05:20;;;;;;;17.33;10.10;;;;;;;;;;5083678;28;20036;-70
2023/10/05 02:07:49;;;;;;;17.08;10.35;;;;;;;;;;5084834;28;20076;-70
2023/10/05 02:10:19;;;;;;;18.88;9.82;;;;;;;;;;5087583;28;20032;-69
2023/10/05 02:12:53;;;;;;;17.30;10.02;;;;;;;;;;5087494;28;20039;-70
2023/10/05 02:15:19;;;;;;;19.63;11.10;;;;;;;;;;5087989;28;20051;-69
2023/10/05 02:17:50;;;;;;;16.67;9.85;;;;;;;;;;5087488;28;20081;-70
2023/10/05 02:23:02;;;;;;;14.57;9.27;;;;;;;;;;5088420;28;20478;-70
2023/10/05 02:25:35;;;;;;;17.88;10.63;;;;;;;;;;5088166;28;20061;-70
2023/10/05 02:28:02;;;;;;;19.23;9.77;;;;;;;;;;5087299;28;20063;-70
2023/10/05 02:30:28;;;;;;;19.40;10.20;;;;;;;;;;5088329;28;20020;-71
2023/10/05 02:32:58;;;;;;;15.63;9.63;;;;;;;;;;5086877;28;20397;-70
2023/10/05 02:35:30;;;;;;;17.85;9.75;;;;;;;;;;5087507;28;20040;-70
2023/10/05 02:37:58;;;;;;;16.05;9.02;;;;;;;;;;5086722;28;20036;-71
2023/10/05 02:40:35;;;;;;;16.15;9.65;;;;;;;;;;5087083;28;20606;-70
2023/10/05 02:43:06;;;;;;;20.40;9.45;;;;;;;;;;5086735;28;20036;-70
2023/10/05 02:45:36;;;;;;;18.95;9.25;;;;;;;;;;5086169;28;20504;-70
2023/10/05 02:48:05;;;;;;;17.20;9.15;;;;;;;;;;5091928;28;20456;-70
2023/10/05 02:50:32;;;;;;;14.30;8.20;;;;;;;;;;5106077;28;20035;-70
2023/10/05 02:53:03;;;;;;;15.90;9.45;;;;;;;;;;5107214;28;20039;-70
2023/10/05 02:55:36;;;;;;;20.83;9.10;;;;;;;;;;5099981;28;20053;-70
2023/10/05 02:58:05;;;;;;;22.42;10.38;;;;;;;;;;5088004;28;20619;-71
2023/10/05 03:00:35;;;;;;;17.55;9.10;;;;;;;;;;5086566;28;20027;-69
2023/10/05 03:03:05;;;;;;;19.83;9.77;;;;;;;;;;5085831;28;20058;-71
2023/10/05 03:05:35;;;;;;;17.73;8.70;;;;;;;;;;5075316;28;20024;-70
2023/10/05 03:08:03;;;;;;;15.38;8.90;;;;;;;;;;5086496;28;20043;-70
2023/10/05 03:10:29;;;;;;;18.00;9.85;;;;;;;;;;5086540;28;20035;-70
2023/10/05 03:12:56;;;;;;;14.30;8.52;;;;;;;;;;5086619;28;20466;-70
2023/10/05 03:15:27;;;;;;;18.33;9.18;;;;;;;;;;5085792;28;20487;-70
2023/10/05 03:17:57;;;;;;;19.70;9.55;;;;;;;;;;5086434;28;20036;-71
2023/10/05 03:20:24;;;;;;;28.10;10.18;;;;;;;;;;5075077;28;20051;-72
2023/10/05 03:22:54;;;;;;;21.80;11.07;;;;;;;;;;5086549;28;20036;-71
2023/10/05 03:25:21;;;;;;;23.23;10.25;;;;;;;;;;5087234;28;20055;-71
2023/10/05 03:27:48;;;;;;;20.08;10.98;;;;;;;;;;5086248;28;20051;-70
2023/10/05 03:30:16;;;;;;;19.83;10.57;;;;;;;;;;5086452;28;20127;-70
2023/10/05 03:32:50;;;;;;;24.15;11.13;;;;;;;;;;5103008;28;20052;-70
2023/10/05 03:35:22;;;;;;;19.55;10.07;;;;;;;;;;5082426;28;20462;-70
2023/10/05 03:37:49;;;;;;;21.90;11.38;;;;;;;;;;5082936;28;20032;-69
2023/10/05 03:40:27;;;;;;;20.00;9.98;;;;;;;;;;5068512;28;20567;-71
2023/10/05 03:43:00;;;;;;;19.02;10.40;;;;;;;;;;5085890;28;20036;-70
2023/10/05 03:45:32;;;;;;;22.23;10.73;;;;;;;;;;5085465;28;20123;-71
2023/10/05 03:48:39;;;;;;;24.98;11.82;;;;;;;;;;5086589;28;20377;-73
2023/10/05 03:51:17;;;;;;;27.65;12.73;;;;;;;;;;5102934;28;20063;-72
2023/10/05 03:53:48;;;;;;;23.13;11.15;;;;;;;;;;5085739;28;20541;-70
2023/10/05 03:56:19;;;;;;;22.23;10.98;;;;;;;;;;5085257;28;20040;-71
2023/10/05 03:58:48;;;;;;;19.38;10.82;;;;;;;;;;5085036;28;20039;-71
2023/10/05 04:01:15;;;;;;;19.98;10.52;;;;;;;;;;5085340;28;20028;-70
2023/10/05 04:03:46;;;;;;;14.75;9.38;;;;;;;;;;5086478;28;20039;-71
2023/10/05 04:06:25;;;;;;;18.35;9.55;;;;;;;;;;5086561;28;20061;-70
2023/10/05 04:08:57;;;;;;;17.92;9.82;;;;;;;;;;5085241;28;20032;-70
2023/10/05 04:11:26;;;;;;;25.00;9.68;;;;;;;;;;5086731;28;20151;-71
2023/10/05 04:13:55;;;;;;;21.27;9.80;;;;;;;;;;5087317;28;20028;-70
2023/10/05 04:16:26;;;;;;;27.17;9.85;;;;;;;;;;5095914;28;20020;-71
2023/10/05 04:18:53;;;;;;;20.05;9.70;;;;;;;;;;5073777;28;20040;-70
2023/10/05 04:21:22;;;;;;;20.42;9.23;;;;;;;;;;5083050;28;20423;-70
2023/10/05 04:23:52;;;;;;;21.33;10.25;;;;;;;;;;5091971;28;20152;-70
2023/10/05 04:26:21;;;;;;;24.23;10.02;;;;;;;;;;5093423;28;20047;-71
2023/10/05 04:28:57;;;;;;;24.58;9.45;;;;;;;;;;5093945;28;20031;-70
2023/10/05 04:31:26;;;;;;;24.27;10.85;;;;;;;;;;5093746;28;20077;-71
2023/10/05 04:33:54;;;;;;;23.05;9.73;;;;;;;;;;5105356;28;20058;-72
2023/10/05 04:36:23;;;;;;;20.73;10.35;;;;;;;;;;5092005;28;20032;-71
2023/10/05 04:38:54;;;;;;;29.38;10.52;;;;;;;;;;5093291;28;20051;-70
2023/10/05 04:41:24;;;;;;;24.73;10.18;;;;;;;;;;5093280;28;20505;-70
2023/10/05 04:43:50;;;;;;;19.30;8.75;;;;;;;;;;5093626;28;20038;-70
2023/10/05 04:46:19;;;;;;;22.52;9.48;;;;;;;;;;5093148;28;20484;-70
2023/10/05 04:51:32;;;;;;;24.77;9.45;;;;;;;;;;5073158;28;20418;-71
2023/10/05 04:53:59;;;;;;;24.23;11.27;;;;;;;;;;5072969;28;20024;-70
2023/10/05 04:56:53;;;;;;;23.65;10.32;;;;;;;;;;5071059;28;20396;-71
2023/10/05 05:07:06;;;;;;;26.00;9.38;;;;;;;;;;5073552;28;20448;-70
2023/10/05 05:09:35;;;;;;;21.63;9.43;;;;;;;;;;5073110;28;20158;-71
2023/10/05 05:12:09;;;;;;;16.52;9.38;;;;;;;;;;5073591;28;20402;-70
2023/10/05 05:14:37;;;;;;;22.75;9.98;;;;;;;;;;5073627;28;20040;-71
2023/10/05 05:17:06;;;;;;;29.23;9.82;;;;;;;;;;5079620;28;20035;-70
2023/10/05 05:19:37;;;;;;;26.48;9.30;;;;;;;;;;5093139;28;20455;-70
2023/10/05 05:22:05;;;;;;;25.38;9.10;;;;;;;;;;5093292;28;20040;-71
2023/10/05 05:24:34;;;;;;;25.77;9.27;;;;;;;;;;5090287;28;20035;-71
2023/10/05 05:27:01;;;;;;;23.23;9.50;;;;;;;;;;5088621;28;20358;-71
2023/10/05 05:29:32;;;;;;;18.27;8.30;;;;;;;;;;5092547;28;20397;-71
2023/10/05 05:32:07;;;;;;;18.48;10.65;;;;;;;;;;5092675;28;20031;-72
2023/10/05 05:34:33;;;;;;;24.42;9.75;;;;;;;;;;5091239;28;20032;-70
2023/10/05 05:36:59;;;;;;;19.60;9.60;;;;;;;;;;5094549;28;20030;-71
2023/10/05 05:39:26;;;;;;;39.92;11.90;;;;;;;;;;5090538;28;20055;-72
2023/10/05 05:41:59;;;;;;;26.98;11.68;;;;;;;;;;5102948;28;20031;-73
2023/10/05 05:44:27;;;;;;;31.80;11.82;;;;;;;;;;5100344;28;20133;-73
2023/10/05 05:46:59;;;;;;;25.05;11.45;;;;;;;;;;5096858;28;20068;-71
2023/10/05 05:49:27;;;;;;;29.00;13.95;;;;;;;;;;5101536;28;20115;-72
2023/10/05 05:51:53;;;;;;;31.63;13.43;;;;;;;;;;5103265;28;20022;-73
2023/10/05 05:54:18;;;;;;;46.08;25.38;;;;;;;;;;5105345;28;20027;-73
2023/10/05 05:56:45;;;;;;;58.72;31.38;;;;;;;;;;5090536;28;20023;-73
2023/10/05 05:59:14;;;;;;;35.47;19.58;;;;;;;;;;5090815;28;20159;-72
2023/10/05 06:01:40;;;;;;;30.33;16.55;;;;;;;;;;5092074;28;20020;-72
2023/10/05 06:04:05;;;;;;;32.67;18.48;;;;;;;;;;5089198;28;20049;-73
2023/10/05 06:06:31;;;;;;;27.50;15.68;;;;;;;;;;5091365;28;20050;-72
2023/10/05 06:08:57;;;;;;;32.65;16.77;;;;;;;;;;5091494;28;20073;-72
2023/10/05 06:11:24;;;;;;;30.15;15.00;;;;;;;;;;5091669;28;20019;-72
2023/10/05 06:13:50;;;;;;;24.80;12.85;;;;;;;;;;5091589;28;20386;-71
2023/10/05 06:16:17;;;;;;;26.67;12.93;;;;;;;;;;5090026;28;20107;-71
2023/10/05 06:18:43;;;;;;;24.45;12.68;;;;;;;;;;5091144;28;20039;-73
2023/10/05 06:21:09;;;;;;;21.98;11.77;;;;;;;;;;5091221;28;20389;-71
2023/10/05 06:23:34;;;;;;;22.02;11.80;;;;;;;;;;5089339;28;20032;-71
2023/10/05 06:26:01;;;;;;;26.52;13.60;;;;;;;;;;5090045;28;20039;-71
2023/10/05 06:28:27;;;;;;;23.92;13.23;;;;;;;;;;5083806;28;20063;-72
2023/10/05 06:30:53;;;;;;;27.95;12.40;;;;;;;;;;5090695;28;20095;-72
2023/10/05 06:33:19;;;;;;;22.15;11.98;;;;;;;;;;5105402;28;20131;-72
2023/10/05 06:35:48;;;;;;;23.40;12.50;;;;;;;;;;5089863;28;20017;-71
2023/10/05 06:38:16;;;;;;;24.35;11.27;;;;;;;;;;5089762;28;20036;-72
2023/10/05 06:40:42;;;;;;;30.58;13.50;;;;;;;;;;5090875;28;20103;-71
2023/10/05 06:43:09;;;;;;;27.60;15.15;;;;;;;;;;5090525;28;20375;-72
2023/10/05 06:45:39;;;;;;;34.80;13.77;;;;;;;;;;5090778;28;20099;-71
2023/10/05 06:48:06;;;;;;;26.63;15.95;;;;;;;;;;5078849;28;20032;-71
2023/10/05 06:50:31;;;;;;;31.38;18.38;;;;;;;;;;5087426;28;20426;-69
2023/10/05 06:52:57;;;;;;;34.33;19.20;;;;;;;;;;5089682;28;20036;-70
2023/10/05 06:55:23;;;;;;;33.75;21.45;;;;;;;;;;5088596;28;20028;-71
2023/10/05 06:57:52;;;;;;;34.92;22.23;;;;;;;;;;5089375;28;20044;-70
2023/10/05 07:00:22;;;;;;;30.40;18.33;;;;;;;;;;5088559;28;20024;-72
2023/10/05 07:02:49;;;;;;;33.72;19.95;;;;;;;;;;5080908;28;20036;-71
2023/10/05 07:05:16;;;;;;;30.98;18.35;;;;;;;;;;5086962;28;20016;-71
2023/10/05 07:07:42;;;;;;;26.58;15.57;;;;;;;;;;5089841;28;20020;-70
2023/10/05 07:10:12;;;;;;;22.58;13.02;;;;;;;;;;5089926;28;20375;-71
2023/10/05 07:12:56;;;;;;;21.95;12.02;;;;;;;;;;5083164;28;20039;-71
2023/10/05 07:15:22;;;;;;;19.10;10.90;;;;;;;;;;5090712;28;20042;-73
2023/10/05 07:17:51;;;;;;;22.42;11.43;;;;;;;;;;5091206;28;20099;-71
2023/10/05 07:20:18;;;;;;;15.43;9.93;;;;;;;;;;5105734;28;20024;-71
2023/10/05 07:22:46;;;;;;;15.30;9.23;;;;;;;;;;5090304;28;20030;-71
2023/10/05 07:25:12;;;;;;;20.63;10.55;;;;;;;;;;5097868;28;20036;-72
2023/10/05 07:27:39;;;;;;;17.60;9.60;;;;;;;;;;5073988;28;20054;-71
2023/10/05 07:30:06;;;;;;;17.77;8.68;;;;;;;;;;5099695;28;20432;-71
2023/10/05 07:32:35;;;;;;;17.30;7.97;;;;;;;;;;5107732;28;20050;-71
2023/10/05 07:35:02;;;;;;;16.95;9.02;;;;;;;;;;5090277;28;20396;-71
2023/10/05 07:37:28;;;;;;;17.77;8.95;;;;;;;;;;5085556;28;20034;-72
2023/10/05 07:39:55;;;;;;;17.27;8.32;;;;;;;;;;5090214;28;20032;-71
2023/10/05 07:42:21;;;;;;;17.70;9.25;;;;;;;;;;5090362;28;20024;-71
2023/10/05 07:44:46;;;;;;;14.88;8.57;;;;;;;;;;5090410;28;20390;-70
2023/10/05 07:47:12;;;;;;;17.17;8.52;;;;;;;;;;5090003;28;20074;-73
2023/10/05 07:49:39;;;;;;;13.68;8.70;;;;;;;;;;5094203;28;20039;-71
2023/10/05 07:52:09;;;;;;;13.70;7.40;;;;;;;;;;5093647;28;20504;-71
2023/10/05 07:54:39;;;;;;;13.77;7.10;;;;;;;;;;5085903;28;20037;-71
2023/10/05 07:57:08;;;;;;;12.45;7.72;;;;;;;;;;5094290;28;20032;-70
2023/10/05 07:59:40;;;;;;;14.45;7.80;;;;;;;;;;5094124;28;20023;-70
2023/10/05 08:02:08;;;;;;;15.38;7.88;;;;;;;;;;5094310;28;20031;-71
2023/10/05 08:04:35;;;;;;;16.90;8.07;;;;;;;;;;5093161;28;20154;-70
2023/10/05 08:07:01;;;;;;;14.13;7.97;;;;;;;;;;5095247;28;20044;-71
2023/10/05 08:09:27;;;;;;;17.73;7.78;;;;;;;;;;5094277;28;20301;-72
2023/10/05 08:11:57;;;;;;;13.10;8.57;;;;;;;;;;5094481;28;20031;-72
2023/10/05 08:14:30;;;;;;;15.00;7.60;;;;;;;;;;5094011;28;20177;-72
2023/10/05 08:16:56;;;;;;;14.60;8.20;;;;;;;;;;5093991;28;20501;-71
2023/10/05 08:19:25;;;;;;;12.15;7.50;;;;;;;;;;5094135;28;20016;-71
2023/10/05 08:21:54;;;;;;;12.70;7.75;;;;;;;;;;5085101;28;20047;-71
2023/10/05 08:24:31;;;;;;;20.33;8.40;;;;;;;;;;5092042;28;20047;-73
2023/10/05 08:26:57;;;;;;;13.25;7.57;;;;;;;;;;5093359;28;20048;-72
2023/10/05 08:29:22;;;;;;;16.40;9.23;;;;;;;;;;5093519;28;20016;-72
2023/10/05 08:31:49;;;;;;;18.15;8.75;;;;;;;;;;5087407;28;20129;-72
2023/10/05 08:34:20;;;;;;;15.27;7.32;;;;;;;;;;5093563;28;20024;-73
2023/10/05 08:36:53;;;;;;;13.55;8.27;;;;;;;;;;5093671;28;20081;-72
2023/10/05 08:39:25;;;;;;;19.60;9.07;;;;;;;;;;5093030;28;20400;-73
2023/10/05 08:41:55;;;;;;;;;;;;;;;;;;5085200;28;20221;-73
2023/10/05 08:44:30;;;;;;;16.08;8.27;;;;;;;;;;5093606;28;20373;-72
2023/10/05 08:46:56;;;;;;;14.82;8.05;;;;;;;;;;5087192;28;20490;-72
2023/10/05 08:49:26;;;;;;;13.95;7.13;;;;;;;;;;5093382;28;20077;-73
2023/10/05 08:51:52;;;;;;;12.95;7.45;;;;;;;;;;5086489;28;20104;-72
2023/10/05 08:54:27;;;;;;;15.45;7.72;;;;;;;;;;5087573;28;20431;-72
2023/10/05 08:56:57;;;;;;;10.80;7.25;;;;;;;;;;5091775;28;20118;-71
2023/10/05 08:59:26;;;;;;;14.80;7.18;;;;;;;;;;5091834;28;20032;-73
2023/10/05 09:01:55;;;;;;;14.13;7.68;;;;;;;;;;5092534;28;20085;-71
2023/10/05 09:06:55;;;;;;;14.48;8.23;;;;;;;;;;5092398;28;20028;-71
2023/10/05 09:18:02;;;;;;;17.02;7.63;;;;;;;;;;5091398;28;20283;-71
2023/10/05 09:20:33;;;;;;;12.50;7.38;;;;;;;;;;5091695;28;20040;-71
2023/10/05 09:23:00;;;;;;;16.73;7.35;;;;;;;;;;5091403;28;20069;-72
2023/10/05 09:25:44;;;;;;;11.82;7.50;;;;;;;;;;5091744;28;20527;-71
2023/10/05 09:28:13;;;;;;;13.65;8.27;;;;;;;;;;5092057;28;20032;-72
2023/10/05 09:30:55;;;;;;;29.25;8.32;;;;;;;;;;5091790;28;20470;-73
2023/10/05 09:33:25;;;;;;;15.55;8.50;;;;;;;;;;5090284;28;20043;-72
2023/10/05 09:35:55;;;;;;;13.57;7.43;;;;;;;;;;5091179;28;20042;-72
2023/10/05 09:38:24;;;;;;;17.92;8.57;;;;;;;;;;5091701;28;20085;-72
2023/10/05 09:40:54;;;;;;;13.65;7.93;;;;;;;;;;5087949;28;20454;-72
2023/10/05 09:43:22;;;;;;;13.70;7.05;;;;;;;;;;5091037;28;20040;-72
2023/10/05 09:45:56;;;;;;;13.00;8.07;;;;;;;;;;5091262;28;20060;-73
2023/10/05 09:48:24;;;;;;;15.13;8.82;;;;;;;;;;5085725;28;20078;-72
2023/10/05 09:50:52;;;;;;;14.25;8.02;;;;;;;;;;5089388;28;20027;-71
2023/10/05 09:53:18;;;;;;;17.33;8.13;;;;;;;;;;5087888;28;20039;-71
2023/10/05 09:55:53;;;;;;;14.10;8.15;;;;;;;;;;5089891;28;20028;-72
2023/10/05 09:58:21;;;;;;;15.35;8.25;;;;;;;;;;5089896;28;20039;-73
2023/10/05 10:00:55;;;;;;;17.92;7.65;;;;;;;;;;5091406;28;20043;-71
2023/10/05 10:03:21;;;;;;;17.52;7.88;;;;;;;;;;5090130;28;20044;-72
2023/10/05 10:06:06;;;;;;;12.50;8.32;;;;;;;;;;5090076;28;20385;-71
2023/10/05 10:08:35;;;;;;;14.55;8.27;;;;;;;;;;5090820;28;20358;-71
2023/10/05 10:11:09;;;;;;;13.55;7.63;;;;;;;;;;5082146;28;20054;-71
2023/10/05 10:13:39;;;;;;;19.67;7.60;;;;;;;;;;5088570;28;20046;-72
2023/10/05 10:16:23;;;;;;;15.77;6.95;;;;;;;;;;5089854;28;20024;-74
2023/10/05 10:19:03;;;;;;;13.45;8.00;;;;;;;;;;5087953;28;20567;-74
2023/10/05 10:21:42;;;;;;;15.13;9.60;;;;;;;;;;5091197;28;20278;-71
2023/10/05 10:24:19;;;;;;;16.98;8.30;;;;;;;;;;5089727;28;20039;-73
2023/10/05 10:26:53;;;;;;;15.48;8.68;;;;;;;;;;5089039;28;20461;-72
2023/10/05 10:29:23;;;;;;;23.08;14.10;;;;;;;;;;5090154;28;20039;-71
2023/10/05 10:32:21;;;;;;;16.83;9.18;;;;;;;;;;5090237;28;20031;-73
2023/10/05 10:35:06;;;;;;;18.50;7.95;;;;;;;;;;5087870;28;20050;-72
2023/10/05 10:37:54;;;;;;;17.10;8.38;;;;;;;;;;5088889;28;20031;-72
2023/10/05 10:45:30;;;;;;;14.40;7.57;;;;;;;;;;5088914;28;20401;-73
2023/10/05 10:47:56;;;;;;;12.13;7.20;;;;;;;;;;5090394;28;20030;-72
2023/10/05 10:50:35;;;;;;;14.73;7.68;;;;;;;;;;5090696;28;20035;-74
2023/10/05 10:53:16;;;;;;;15.25;8.40;;;;;;;;;;5104459;28;20446;-72
2023/10/05 10:56:17;;;;;;;14.57;7.07;;;;;;;;;;5088490;28;20028;-73
2023/10/05 10:58:44;;;;;;;20.77;7.90;;;;;;;;;;5088528;28;20113;-72
2023/10/05 11:01:29;;;;;;;13.90;7.97;;;;;;;;;;5090413;28;20195;-72
2023/10/05 11:03:56;;;;;;;14.93;7.43;;;;;;;;;;5089892;28;20097;-73
2023/10/05 11:06:26;;;;;;;12.98;7.75;;;;;;;;;;5089206;28;20020;-73
2023/10/05 11:08:52;;;;;;;16.25;8.52;;;;;;;;;;5089689;28;20504;-72
2023/10/05 11:11:23;;;;;;;13.40;7.57;;;;;;;;;;5090733;28;20059;-72
2023/10/05 11:13:54;;;;;;;17.45;7.75;;;;;;;;;;5091486;28;20468;-72
2023/10/05 11:16:32;;;;;;;13.50;7.78;;;;;;;;;;5091343;28;20040;-72
2023/10/05 11:18:57;;;;;;;16.83;8.68;;;;;;;;;;5090634;28;20040;-72
2023/10/05 11:21:26;;;;;;;11.65;7.65;;;;;;;;;;5091505;28;20149;-72
2023/10/05 11:24:00;;;;;;;14.02;7.03;;;;;;;;;;5094277;28;20144;-72
2023/10/05 11:26:33;;;;;;;14.95;7.13;;;;;;;;;;5097507;28;20032;-73
2023/10/05 11:28:59;;;;;;;;;;;;;;;;;;5098286;28;20059;-72
2023/10/05 11:31:26;;;;;;;11.35;6.60;;;;;;;;;;5098150;28;19919;-71
2023/10/05 11:33:53;;;;;;;11.00;6.60;;;;;;;;;;5097672;28;20040;-72
2023/10/05 11:36:27;;;;;;;14.10;6.78;;;;;;;;;;5097840;28;20103;-74
2023/10/05 11:39:00;;;;;;;11.82;7.30;;;;;;;;;;5097351;28;20054;-73
2023/10/05 11:41:28;;;;;;;13.37;7.13;;;;;;;;;;5094360;28;20040;-71
2023/10/05 11:43:55;;;;;;;10.55;6.25;;;;;;;;;;5096463;28;20042;-73
2023/10/05 11:46:26;;;;;;;13.63;7.82;;;;;;;;;;5096819;28;20036;-73
2023/10/05 11:48:55;;;;;;;14.18;8.45;;;;;;;;;;5095629;28;20097;-71
2023/10/05 11:51:27;;;;;;;14.02;7.90;;;;;;;;;;5097102;28;20099;-72
2023/10/05 11:53:55;;;;;;;14.75;7.15;;;;;;;;;;5096843;28;20031;-73
2023/10/05 11:56:30;;;;;;;16.80;9.00;;;;;;;;;;5095485;28;20321;-73
2023/10/05 11:59:02;;;;;;;14.90;7.50;;;;;;;;;;5095116;28;20493;-72
2023/10/05 12:01:27;;;;;;;18.10;7.63;;;;;;;;;;5096677;27;20405;-72
2023/10/05 12:03:55;;;;;;;16.17;7.28;;;;;;;;;;5096203;28;20019;-73
2023/10/05 12:06:25;;;;;;;21.17;9.50;;;;;;;;;;5096237;28;20027;-71
2023/10/05 12:09:00;;;;;;;15.65;7.13;;;;;;;;;;5096012;28;20059;-71
2023/10/05 12:11:27;;;;;;;9.57;6.25;;;;;;;;;;5096098;28;20122;-74
2023/10/05 12:13:56;;;;;;;16.00;6.75;;;;;;;;;;5096346;28;20019;-72
2023/10/05 12:16:27;;;;;;;14.50;6.68;;;;;;;;;;5095770;28;20092;-72
2023/10/05 12:18:54;;;;;;;11.00;5.80;;;;;;;;;;5097068;28;20089;-72
2023/10/05 12:21:21;;;;;;;13.07;6.50;;;;;;;;;;5095872;28;20035;-74
2023/10/05 12:23:48;;;;;;;11.50;5.90;;;;;;;;;;5096286;28;20027;-74
2023/10/05 12:26:15;;;;;;;13.00;6.05;;;;;;;;;;5095770;28;20020;-72
2023/10/05 12:28:41;;;;;;;16.10;6.82;;;;;;;;;;5096295;28;20032;-72
2023/10/05 12:31:10;;;;;;;16.60;6.43;;;;;;;;;;5096243;28;20027;-73
2023/10/05 12:33:39;;;;;;;15.35;6.90;;;;;;;;;;5095343;28;20073;-72
2023/10/05 12:36:08;;;;;;;10.30;5.07;;;;;;;;;;5092734;28;20046;-70
2023/10/05 12:38:36;;;;;;;11.32;5.57;;;;;;;;;;5092733;28;20538;-72
2023/10/05 12:41:23;;;;;;;14.23;6.32;;;;;;;;;;5092879;28;20024;-69
2023/10/05 12:43:49;;;;;;;11.25;6.13;;;;;;;;;;5092179;28;20079;-74
2023/10/05 12:46:15;;;;;;;11.95;5.90;;;;;;;;;;5092436;28;20024;-73
2023/10/05 12:48:40;;;;;;;9.85;5.78;;;;;;;;;;5093466;28;20032;-73
2023/10/05 12:51:08;;;;;;;13.32;6.07;;;;;;;;;;5093433;28;20020;-72
2023/10/05 12:53:38;;;;;;;11.55;5.60;;;;;;;;;;5092425;28;20020;-73
2023/10/05 12:56:04;;;;;;;11.27;5.43;;;;;;;;;;5092721;28;20064;-73
2023/10/05 12:58:34;;;;;;;11.48;5.78;;;;;;;;;;5092685;28;20019;-70
2023/10/05 13:01:07;;;;;;;15.93;6.90;;;;;;;;;;5092948;28;20047;-73
2023/10/05 13:03:34;;;;;;;10.80;6.00;;;;;;;;;;5094374;28;20119;-73
2023/10/05 13:06:06;;;;;;;13.18;5.97;;;;;;;;;;5092718;28;20028;-71
2023/10/05 13:08:32;;;;;;;11.70;5.97;;;;;;;;;;5092676;28;20032;-71
2023/10/05 13:10:58;;;;;;;14.38;5.97;;;;;;;;;;5093079;28;20404;-72
2023/10/05 13:13:25;;;;;;;12.93;6.00;;;;;;;;;;5092989;28;20090;-72
2023/10/05 13:15:52;;;;;;;8.50;5.00;;;;;;;;;;5091900;28;20107;-73
2023/10/05 13:18:18;;;;;;;14.18;5.03;;;;;;;;;;5092619;28;20342;-71
2023/10/05 13:20:49;;;;;;;11.48;5.40;;;;;;;;;;5091307;28;20024;-72
2023/10/05 13:23:19;;;;;;;12.27;6.50;;;;;;;;;;5092311;28;20044;-71
2023/10/05 13:25:48;;;;;;;11.35;6.03;;;;;;;;;;5092255;28;20031;-71
2023/10/05 13:28:21;;;;;;;14.23;6.25;;;;;;;;;;5092941;28;20032;-71
2023/10/05 13:30:47;;;;;;;;;;;;;;;;;;5092345;28;20107;-71
2023/10/05 13:33:28;;;;;;;9.90;5.30;;;;;;;;;;5092432;28;19957;-72
2023/10/05 13:35:56;;;;;;;12.10;5.22;;;;;;;;;;5091101;28;20028;-71
2023/10/05 13:38:28;;;;;;;11.30;5.32;;;;;;;;;;5092077;28;20055;-71
2023/10/05 13:43:32;;;;;;;11.98;5.40;;;;;;;;;;5092753;28;20040;-71
2023/10/05 13:46:15;;;;;;;13.50;6.32;;;;;;;;;;5091553;28;20024;-74
2023/10/05 13:48:53;;;;;;;14.13;6.07;;;;;;;;;;5092762;28;20047;-72
2023/10/05 13:51:21;;;;;;;12.35;5.70;;;;;;;;;;5093145;28;20054;-73
2023/10/05 13:53:54;;;;;;;16.65;6.30;;;;;;;;;;5092360;28;20374;-72
2023/10/05 13:56:27;;;;;;;11.60;6.18;;;;;;;;;;5091210;28;20032;-73
2023/10/05 13:59:05;;;;;;;13.77;5.30;;;;;;;;;;5092356;28;20115;-72
2023/10/05 14:01:39;;;;;;;17.65;6.30;;;;;;;;;;5091859;28;20036;-71
2023/10/05 14:04:08;;;;;;;10.63;5.57;;;;;;;;;;5092356;28;20408;-71
2023/10/05 14:06:34;;;;;;;10.60;5.45;;;;;;;;;;5108115;28;20088;-72
2023/10/05 14:09:05;;;;;;;11.70;5.93;;;;;;;;;;5092120;28;20035;-71
2023/10/05 14:11:32;;;;;;;13.20;5.72;;;;;;;;;;5092240;28;20043;-73
2023/10/05 14:13:59;;;;;;;15.25;6.43;;;;;;;;;;5075393;28;20478;-72
2023/10/05 14:16:25;;;;;;;12.90;5.82;;;;;;;;;;5070700;28;20090;-71
2023/10/05 14:18:50;;;;;;;11.63;6.20;;;;;;;;;;5071543;28;20028;-74
2023/10/05 14:21:16;;;;;;;10.82;5.75;;;;;;;;;;5072101;28;20075;-70
2023/10/05 14:23:44;;;;;;;12.20;5.53;;;;;;;;;;5109380;28;20036;-72
2023/10/05 14:26:10;;;;;;;12.25;5.50;;;;;;;;;;5111727;28;20030;-72
2023/10/05 14:28:40;;;;;;;14.05;5.97;;;;;;;;;;5112401;28;20097;-73
2023/10/05 14:31:06;;;;;;;10.32;5.90;;;;;;;;;;5111505;28;20036;-70
2023/10/05 14:33:32;;;;;;;13.73;6.38;;;;;;;;;;5069834;28;20032;-71
2023/10/05 14:35:58;;;;;;;12.55;6.35;;;;;;;;;;5070883;28;20347;-72
2023/10/05 14:38:25;;;;;;;11.55;5.95;;;;;;;;;;5071286;28;20020;-71
2023/10/05 14:40:56;;;;;;;10.88;5.68;;;;;;;;;;5071493;28;20032;-72
2023/10/05 14:43:31;;;;;;;15.35;6.45;;;;;;;;;;5071891;28;20041;-73
2023/10/05 14:45:59;;;;;;;11.20;5.97;;;;;;;;;;5069854;28;20049;-72
2023/10/05 14:48:32;;;;;;;14.70;6.25;;;;;;;;;;5070977;28;20020;-71
2023/10/05 14:50:58;;;;;;;12.82;6.13;;;;;;;;;;5071359;28;20513;-70
2023/10/05 14:53:24;;;;;;;11.57;6.10;;;;;;;;;;5070240;28;20035;-73
2023/10/05 14:55:51;;;;;;;14.07;6.60;;;;;;;;;;5069359;28;20044;-71
2023/10/05 14:58:18;;;;;;;11.50;5.68;;;;;;;;;;5069884;28;20032;-70
2023/10/05 15:00:45;;;;;;;13.60;6.28;;;;;;;;;;5070369;28;20033;-72
2023/10/05 15:03:17;;;;;;;9.38;5.80;;;;;;;;;;5070957;28;20038;-72
2023/10/05 15:05:43;;;;;;;10.82;5.68;;;;;;;;;;5070180;28;20043;-72
2023/10/05 15:08:11;;;;;;;10.07;5.45;;;;;;;;;;5071174;28;20359;-72
2023/10/05 15:10:40;;;;;;;13.07;6.25;;;;;;;;;;5068756;28;20111;-72
2023/10/05 15:13:07;;;;;;;12.48;6.45;;;;;;;;;;5070531;28;20035;-71
2023/10/05 15:15:34;;;;;;;11.35;5.85;;;;;;;;;;5069765;28;20490;-72
2023/10/05 15:18:00;;;;;;;13.50;6.70;;;;;;;;;;5070885;28;20025;-72
2023/10/05 15:20:27;;;;;;;17.45;7.47;;;;;;;;;;5074875;28;20032;-72